createdAt,value
2022-08-19T00:00:12.316Z,14.06
2022-08-19T00:02:40.587Z,13.71
2022-08-19T00:05:22.046Z,13.88
2022-08-19T00:07:51.449Z,14.11
2022-08-19T00:10:21.831Z,14.12
2022-08-19T00:12:50.339Z,13.90
2022-08-19T00:15:21.289Z,14.03
2022-08-19T00:17:50.461Z,14.02
2022-08-19T00:20:22.039Z,13.47
2022-08-19T00:22:50.199Z,13.32
2022-08-19T00:25:30.305Z,13.58
2022-08-19T00:28:00.029Z,13.40
2022-08-19T00:30:28.525Z,13.53
2022-08-19T00:32:58.942Z,13.50
2022-08-19T00:35:28.269Z,13.44
2022-08-19T00:37:57.854Z,13.29
2022-08-19T00:40:28.517Z,13.41
2022-08-19T00:43:09.549Z,13.45
2022-08-19T00:45:52.728Z,13.11
2022-08-19T00:48:22.508Z,13.16
2022-08-19T00:51:27.600Z,13.41
2022-08-19T00:54:10.159Z,12.99
2022-08-19T00:56:40.300Z,13.02
2022-08-19T01:00:00.273Z,13.35
2022-08-19T01:02:36.509Z,13.31
2022-08-19T01:05:16.029Z,13.57
2022-08-19T01:07:51.969Z,13.25
2022-08-19T01:10:36.541Z,12.92
2022-08-19T01:13:24.721Z,13.13
2022-08-19T01:16:03.058Z,13.43
2022-08-19T01:18:33.177Z,13.50
2022-08-19T01:21:16.489Z,13.71
2022-08-19T01:23:48.823Z,13.79
2022-08-19T01:26:22.293Z,13.34
2022-08-19T01:28:54.877Z,13.52
2022-08-19T01:31:33.174Z,13.50
2022-08-19T01:34:04.187Z,13.47
2022-08-19T01:36:34.648Z,13.46
2022-08-19T01:39:07.272Z,13.29
2022-08-19T01:41:35.856Z,13.33
2022-08-19T01:44:17.163Z,13.13
2022-08-19T01:46:48.537Z,13.21
2022-08-19T01:49:19.678Z,13.21
2022-08-19T01:51:50.904Z,12.99
2022-08-19T01:54:27.658Z,12.66
2022-08-19T01:57:02.056Z,13.02
2022-08-19T01:59:30.724Z,13.30
2022-08-19T02:01:58.962Z,12.91
2022-08-19T02:04:28.243Z,12.83
2022-08-19T02:06:56.202Z,12.99
2022-08-19T02:09:26.843Z,12.74
2022-08-19T02:11:54.899Z,12.72
2022-08-19T02:14:22.996Z,12.88
2022-08-19T02:16:54.006Z,13.15
2022-08-19T02:19:22.138Z,13.27
2022-08-19T02:21:51.428Z,13.27
2022-08-19T02:24:21.629Z,13.04
2022-08-19T02:26:53.911Z,12.94
2022-08-19T02:29:22.628Z,12.96
2022-08-19T02:31:51.051Z,13.01
2022-08-19T02:34:19.345Z,13.05
2022-08-19T02:36:51.962Z,12.99
2022-08-19T02:39:20.153Z,12.88
2022-08-19T02:41:48.316Z,12.67
2022-08-19T02:44:30.112Z,12.77
2022-08-19T02:47:00.174Z,12.96
2022-08-19T02:49:28.351Z,12.96
2022-08-19T02:51:56.468Z,12.79
2022-08-19T02:54:25.693Z,12.97
2022-08-19T02:56:53.701Z,13.01
2022-08-19T02:59:23.338Z,13.00
2022-08-19T03:01:51.718Z,12.82
2022-08-19T03:04:20.363Z,12.81
2022-08-19T03:06:49.655Z,12.86
2022-08-19T03:09:19.588Z,12.86
2022-08-19T03:11:48.551Z,12.82
2022-08-19T03:14:21.103Z,12.85
2022-08-19T03:16:54.656Z,12.87
2022-08-19T03:19:23.474Z,12.63
2022-08-19T03:21:52.990Z,12.94
2022-08-19T03:24:22.136Z,13.01
2022-08-19T03:26:53.900Z,13.06
2022-08-19T03:29:44.563Z,12.88
2022-08-19T03:32:32.641Z,12.65
2022-08-19T03:35:07.861Z,12.66
2022-08-19T03:37:35.920Z,12.75
2022-08-19T03:40:04.861Z,12.84
2022-08-19T03:42:48.486Z,13.13
2022-08-19T03:45:17.824Z,12.90
2022-08-19T03:47:47.574Z,12.91
2022-08-19T03:50:15.611Z,12.96
2022-08-19T03:52:46.944Z,12.97
2022-08-19T03:55:15.368Z,12.80
2022-08-19T03:57:43.462Z,12.87
2022-08-19T04:00:14.209Z,12.57
2022-08-19T04:02:42.902Z,12.52
2022-08-19T04:05:29.805Z,12.56
2022-08-19T04:08:00.037Z,12.73
2022-08-19T04:10:28.783Z,12.48
2022-08-19T04:12:57.861Z,12.46
2022-08-19T04:15:25.936Z,12.53
2022-08-19T04:17:54.355Z,12.72
2022-08-19T04:20:22.193Z,12.55
2022-08-19T04:22:51.606Z,12.58
2022-08-19T04:25:19.837Z,12.61
2022-08-19T04:27:50.149Z,12.51
2022-08-19T04:30:18.821Z,12.63
2022-08-19T04:32:49.559Z,12.49
2022-08-19T04:35:22.019Z,12.66
2022-08-19T04:37:53.909Z,12.72
2022-08-19T04:40:39.448Z,12.89
2022-08-19T04:43:07.637Z,12.78
2022-08-19T04:45:39.691Z,12.86
2022-08-19T04:48:26.801Z,12.83
2022-08-19T04:50:58.634Z,12.77
2022-08-19T04:53:29.930Z,12.69
2022-08-19T04:56:09.063Z,12.80
2022-08-19T04:58:39.165Z,13.00
2022-08-19T05:01:07.501Z,12.80
2022-08-19T05:03:35.421Z,12.87
2022-08-19T05:06:08.438Z,13.05
2022-08-19T05:08:43.007Z,13.23
2022-08-19T05:11:16.929Z,13.01
2022-08-19T05:13:47.249Z,13.00
2022-08-19T05:16:15.769Z,13.04
2022-08-19T05:19:01.567Z,13.15
2022-08-19T05:21:48.164Z,13.20
2022-08-19T05:24:19.049Z,13.38
2022-08-19T05:26:49.792Z,13.86
2022-08-19T05:29:21.613Z,13.85
2022-08-19T05:31:51.500Z,13.91
2022-08-19T05:34:26.926Z,14.19
2022-08-19T05:36:57.997Z,14.39
2022-08-19T05:39:35.287Z,14.52
2022-08-19T05:42:08.154Z,14.71
2022-08-19T05:44:38.207Z,14.77
2022-08-19T05:47:09.446Z,14.88
2022-08-19T05:49:39.460Z,15.03
2022-08-19T05:52:11.777Z,15.14
2022-08-19T05:54:43.664Z,15.27
2022-08-19T05:57:13.396Z,15.32
2022-08-19T05:59:42.050Z,15.49
2022-08-19T06:02:10.687Z,15.50
2022-08-19T06:04:38.722Z,15.81
2022-08-19T06:07:20.929Z,15.99
2022-08-19T06:09:59.900Z,16.25
2022-08-19T06:12:36.005Z,16.52
2022-08-19T06:15:07.088Z,17.25
2022-08-19T06:17:38.618Z,17.42
2022-08-19T06:20:29.642Z,17.85
2022-08-19T06:23:06.969Z,18.21
2022-08-19T06:25:36.663Z,18.89
2022-08-19T06:28:15.172Z,19.11
2022-08-19T06:30:43.722Z,19.14
2022-08-19T06:33:11.688Z,19.72
2022-08-19T06:35:42.872Z,20.33
2022-08-19T06:38:11.319Z,20.47
2022-08-19T06:40:41.250Z,21.10
2022-08-19T06:43:11.361Z,20.78
2022-08-19T06:45:40.521Z,21.01
2022-08-19T06:48:08.712Z,21.57
2022-08-19T06:50:39.860Z,21.76
2022-08-19T06:53:09.248Z,21.47
2022-08-19T06:55:45.238Z,22.05
2022-08-19T06:58:13.689Z,22.10
2022-08-19T07:00:45.571Z,22.29
2022-08-19T07:03:13.946Z,21.86
2022-08-19T07:06:32.641Z,22.46
2022-08-19T07:09:23.733Z,22.83
2022-08-19T07:12:30.536Z,22.40
2022-08-19T07:15:00.593Z,22.88
2022-08-19T07:17:29.438Z,23.24
2022-08-19T07:20:10.123Z,23.31
2022-08-19T07:22:43.120Z,23.61
2022-08-19T07:25:14.474Z,23.73
2022-08-19T07:27:54.241Z,24.21
2022-08-19T07:30:26.206Z,23.61
2022-08-19T07:32:54.689Z,24.17
2022-08-19T07:35:24.595Z,24.19
2022-08-19T07:37:54.171Z,24.36
2022-08-19T07:40:23.655Z,23.42
2022-08-19T07:42:53.124Z,23.97
2022-08-19T07:45:21.958Z,23.80
2022-08-19T07:47:51.358Z,24.26
2022-08-19T07:50:22.133Z,24.88
2022-08-19T07:52:51.662Z,25.45
2022-08-19T07:55:42.712Z,25.42
2022-08-19T07:58:15.935Z,25.21
2022-08-19T08:00:47.487Z,24.79
2022-08-19T08:03:18.057Z,25.84
2022-08-19T08:06:03.717Z,25.34
2022-08-19T08:08:49.998Z,25.15
2022-08-19T08:11:20.737Z,26.62
2022-08-19T08:14:01.308Z,26.15
2022-08-19T08:16:35.551Z,25.71
2022-08-19T08:19:20.627Z,26.85
2022-08-19T08:21:54.840Z,26.47
2022-08-19T08:24:28.294Z,26.42
2022-08-19T08:26:57.809Z,25.72
2022-08-19T08:29:34.548Z,25.62
2022-08-19T08:32:03.695Z,26.21
2022-08-19T08:34:42.812Z,25.98
2022-08-19T08:37:11.023Z,25.98
2022-08-19T08:39:39.044Z,26.53
2022-08-19T08:42:17.867Z,26.14
2022-08-19T08:45:00.511Z,26.44
2022-08-19T08:47:36.263Z,26.94
2022-08-19T08:50:12.145Z,27.11
2022-08-19T08:52:45.057Z,27.41
2022-08-19T08:55:17.386Z,27.94
2022-08-19T08:57:56.190Z,27.70
2022-08-19T09:00:30.473Z,27.19
2022-08-19T09:03:00.677Z,28.21
2022-08-19T09:05:48.236Z,27.97
2022-08-19T09:08:27.482Z,29.10
2022-08-19T09:10:58.387Z,28.63
2022-08-19T09:13:38.193Z,27.69
2022-08-19T09:16:09.730Z,28.50
2022-08-19T09:18:43.519Z,28.18
2022-08-19T09:21:12.178Z,28.96
2022-08-19T09:23:40.505Z,28.59
2022-08-19T09:26:11.156Z,28.86
2022-08-19T09:28:39.774Z,28.47
2022-08-19T09:31:16.364Z,28.07
2022-08-19T09:33:44.982Z,27.61
2022-08-19T09:36:24.331Z,27.39
2022-08-19T09:39:16.022Z,27.17
2022-08-19T09:41:47.644Z,27.99
2022-08-19T09:44:18.883Z,28.38
2022-08-19T09:46:50.581Z,27.83
2022-08-19T09:49:24.543Z,28.81
2022-08-19T09:51:57.088Z,29.19
2022-08-19T09:54:28.944Z,30.05
2022-08-19T09:57:03.824Z,28.35
2022-08-19T09:59:38.013Z,28.44
2022-08-19T10:05:36.337Z,28.71
2022-08-19T10:08:05.837Z,29.36
2022-08-19T10:10:48.074Z,29.01
2022-08-19T10:13:25.998Z,29.77
2022-08-19T10:16:05.669Z,29.27
2022-08-19T10:18:44.368Z,28.76
2022-08-19T10:21:38.454Z,29.37
2022-08-19T10:24:09.646Z,29.80
2022-08-19T10:26:57.366Z,29.74
2022-08-19T10:29:33.551Z,28.49
2022-08-19T10:32:03.329Z,29.59
2022-08-19T10:34:33.240Z,28.97
2022-08-19T10:37:03.084Z,28.30
2022-08-19T10:39:43.162Z,29.87
2022-08-19T10:45:22.198Z,28.95
2022-08-19T10:48:22.475Z,28.07
2022-08-19T10:51:34.957Z,28.49
2022-08-19T10:54:12.390Z,28.75
2022-08-19T10:56:56.171Z,27.92
2022-08-19T10:59:35.276Z,29.19
2022-08-19T11:02:14.769Z,28.97
2022-08-19T11:04:44.187Z,26.86
2022-08-19T11:10:30.265Z,28.07
2022-08-19T11:13:08.811Z,29.02
2022-08-19T11:15:38.569Z,30.58
2022-08-19T11:18:28.639Z,29.81
2022-08-19T11:21:31.449Z,30.89
2022-08-19T11:24:17.578Z,31.29
2022-08-19T11:26:55.272Z,29.87
2022-08-19T11:29:26.868Z,30.09
2022-08-19T11:32:02.605Z,29.52
2022-08-19T11:34:42.946Z,29.78
2022-08-19T11:37:11.088Z,28.58
2022-08-19T11:39:42.303Z,30.62
2022-08-19T11:42:30.067Z,30.26
2022-08-19T11:44:58.145Z,30.14
2022-08-19T11:47:27.397Z,31.20
2022-08-19T11:49:56.882Z,30.49
2022-08-19T11:52:25.018Z,30.21
2022-08-19T11:54:55.078Z,29.70
2022-08-19T11:57:24.608Z,28.73
2022-08-19T11:59:54.124Z,29.28
2022-08-19T12:02:22.710Z,29.28
2022-08-19T12:04:51.055Z,30.32
2022-08-19T12:07:19.135Z,29.91
2022-08-19T12:09:48.669Z,29.07
2022-08-19T12:12:17.464Z,28.97
2022-08-19T12:14:57.708Z,28.47
2022-08-19T12:17:26.182Z,28.35
2022-08-19T12:19:54.187Z,28.04
2022-08-19T12:22:23.492Z,28.53
2022-08-19T12:24:53.300Z,29.70
2022-08-19T12:27:35.707Z,29.16
2022-08-19T12:30:14.268Z,28.93
2022-08-19T12:32:42.475Z,29.98
2022-08-19T12:35:12.469Z,31.82
2022-08-19T12:37:45.426Z,33.34
2022-08-19T12:40:26.192Z,32.93
2022-08-19T12:42:56.506Z,33.57
2022-08-19T12:45:26.861Z,31.72
2022-08-19T12:47:56.227Z,32.74
2022-08-19T12:50:24.268Z,33.61
2022-08-19T12:52:52.586Z,31.20
2022-08-19T12:55:20.715Z,30.51
2022-08-19T12:57:51.746Z,30.99
2022-08-19T13:00:23.226Z,31.39
2022-08-19T13:02:54.659Z,30.65
2022-08-19T13:05:27.158Z,30.38
2022-08-19T13:08:00.603Z,29.79
2022-08-19T13:10:31.406Z,30.02
2022-08-19T13:13:02.677Z,28.18
2022-08-19T13:15:32.205Z,29.46
2022-08-19T13:18:03.712Z,28.89
2022-08-19T13:20:32.193Z,28.27
2022-08-19T13:23:00.668Z,27.86
2022-08-19T13:25:30.719Z,28.37
2022-08-19T13:27:58.963Z,28.44
2022-08-19T13:30:44.545Z,28.25
2022-08-19T13:33:15.978Z,29.02
2022-08-19T13:35:48.580Z,27.60
2022-08-19T13:38:19.326Z,26.47
2022-08-19T13:40:53.543Z,25.41
2022-08-19T13:43:26.802Z,25.57
2022-08-19T13:45:57.807Z,24.79
2022-08-19T13:48:29.033Z,24.46
2022-08-19T13:50:57.187Z,24.37
2022-08-19T13:53:25.897Z,24.22
2022-08-19T13:55:55.349Z,24.32
2022-08-19T13:58:24.561Z,24.35
2022-08-19T14:00:54.677Z,24.31
2022-08-19T14:03:22.750Z,24.03
2022-08-19T14:05:52.440Z,23.77
2022-08-19T14:08:45.544Z,23.87
2022-08-19T14:11:18.623Z,24.23
2022-08-19T14:13:47.564Z,24.54
2022-08-19T14:16:18.244Z,24.94
2022-08-19T14:18:54.693Z,26.94
2022-08-19T14:21:26.447Z,27.44
2022-08-19T14:23:55.341Z,26.98
2022-08-19T14:26:24.467Z,26.76
2022-08-19T14:28:53.230Z,27.18
2022-08-19T14:31:29.017Z,26.50
2022-08-19T14:33:59.220Z,25.92
2022-08-19T14:36:39.095Z,25.56
2022-08-19T14:39:07.773Z,25.48
2022-08-19T14:41:36.917Z,25.35
2022-08-19T14:44:05.486Z,24.76
2022-08-19T14:46:35.477Z,24.56
2022-08-19T14:49:09.372Z,24.51
2022-08-19T14:51:40.311Z,24.43
2022-08-19T14:54:09.897Z,24.53
2022-08-19T14:56:38.102Z,24.64
2022-08-19T14:59:07.536Z,24.93
2022-08-19T15:01:37.328Z,24.55
2022-08-19T15:04:05.976Z,24.94
2022-08-19T15:06:41.607Z,26.85
2022-08-19T15:09:27.205Z,26.06
2022-08-19T15:12:02.703Z,27.45
2022-08-19T15:14:35.861Z,27.82
2022-08-19T15:17:08.506Z,27.25
2022-08-19T15:19:39.654Z,29.55
2022-08-19T15:22:14.614Z,29.46
2022-08-19T15:24:51.671Z,27.76
2022-08-19T15:27:21.630Z,28.44
2022-08-19T15:29:50.762Z,28.79
2022-08-19T15:32:26.723Z,28.39
2022-08-19T15:34:56.617Z,28.18
2022-08-19T15:37:25.433Z,27.89
2022-08-19T15:39:57.268Z,26.92
2022-08-19T15:42:29.985Z,26.15
2022-08-19T15:45:00.727Z,25.23
2022-08-19T15:47:34.776Z,24.98
2022-08-19T15:50:10.829Z,25.56
2022-08-19T15:52:49.693Z,25.53
2022-08-19T15:55:34.139Z,25.08
2022-08-19T15:58:28.661Z,25.25
2022-08-19T16:01:16.592Z,25.25
2022-08-19T16:04:04.218Z,24.70
2022-08-19T16:06:32.703Z,24.32
2022-08-19T16:09:07.276Z,24.40
2022-08-19T16:11:39.597Z,23.83
2022-08-19T16:14:10.520Z,23.81
2022-08-19T16:16:39.513Z,23.88
2022-08-19T16:19:12.115Z,23.87
2022-08-19T16:21:41.764Z,23.82
2022-08-19T16:24:13.369Z,23.67
2022-08-19T16:26:44.024Z,24.13
2022-08-19T16:29:33.600Z,24.02
2022-08-19T16:32:04.609Z,23.97
2022-08-19T16:34:33.864Z,23.90
2022-08-19T16:37:03.952Z,24.08
2022-08-19T16:39:31.994Z,23.98
2022-08-19T16:42:07.422Z,23.93
2022-08-19T16:44:39.488Z,24.01
2022-08-19T16:47:09.454Z,24.11
2022-08-19T16:49:53.946Z,24.24
2022-08-19T16:52:36.898Z,24.31
2022-08-19T16:55:08.564Z,24.68
2022-08-19T16:57:38.119Z,24.48
2022-08-19T17:00:09.941Z,24.28
2022-08-19T17:02:39.416Z,24.29
2022-08-19T17:05:09.494Z,23.98
2022-08-19T17:07:37.553Z,24.29
2022-08-19T17:10:07.083Z,24.49
2022-08-19T17:12:38.826Z,24.40
2022-08-19T17:15:08.753Z,24.37
2022-08-19T17:17:37.933Z,24.27
2022-08-19T17:20:08.207Z,23.71
2022-08-19T17:22:40.218Z,23.93
2022-08-19T17:25:10.835Z,23.99
2022-08-19T17:27:41.391Z,23.38
2022-08-19T17:30:12.079Z,23.47
2022-08-19T17:32:40.374Z,23.40
2022-08-19T17:35:09.655Z,23.33
2022-08-19T17:37:42.838Z,23.20
2022-08-19T17:40:12.157Z,23.27
2022-08-19T17:42:43.945Z,23.05
2022-08-19T17:45:17.936Z,23.14
2022-08-19T17:47:49.172Z,22.89
2022-08-19T17:50:28.246Z,22.86
2022-08-19T17:52:58.328Z,22.74
2022-08-19T17:55:28.266Z,22.61
2022-08-19T17:57:58.733Z,22.47
2022-08-19T18:02:58.552Z,22.64
2022-08-19T18:05:32.901Z,22.54
2022-08-19T18:08:02.982Z,22.47
2022-08-19T18:10:34.877Z,22.53
2022-08-19T18:13:17.211Z,22.37
2022-08-19T18:15:47.483Z,22.54
2022-08-19T18:18:15.835Z,22.48
2022-08-19T18:20:44.237Z,22.06
2022-08-19T18:23:44.791Z,21.24
2022-08-19T18:26:00.655Z,20.90
2022-08-19T18:28:30.567Z,20.62
2022-08-19T18:30:59.313Z,20.39
2022-08-19T18:33:27.372Z,20.06
2022-08-19T18:35:56.617Z,20.10
2022-08-19T18:38:42.422Z,19.97
2022-08-19T18:41:28.471Z,20.01
2022-08-19T18:44:16.135Z,20.09
2022-08-19T18:47:02.041Z,19.84
2022-08-19T18:49:32.798Z,19.93
2022-08-19T18:52:03.325Z,19.95
2022-08-19T18:54:35.750Z,19.89
2022-08-19T18:57:05.604Z,19.87
2022-08-19T18:59:36.066Z,19.78
2022-08-19T19:02:05.249Z,19.73
2022-08-19T19:04:35.237Z,19.78
2022-08-19T19:07:06.391Z,19.80
2022-08-19T19:09:34.954Z,19.82
2022-08-19T19:12:10.637Z,19.70
2022-08-19T19:14:49.557Z,19.66
2022-08-19T19:17:22.949Z,19.65
2022-08-19T19:19:53.713Z,19.67
2022-08-19T19:22:24.007Z,19.68
2022-08-19T19:24:54.116Z,19.69
2022-08-19T19:27:22.919Z,19.73
2022-08-19T19:29:54.496Z,19.75
2022-08-19T19:32:24.906Z,19.77
2022-08-19T19:34:59.650Z,19.74
2022-08-19T19:37:28.023Z,19.78
2022-08-19T19:39:56.333Z,19.61
2022-08-19T19:42:24.961Z,19.54
2022-08-19T19:44:56.633Z,19.42
2022-08-19T19:47:28.184Z,19.22
2022-08-19T19:50:17.585Z,19.16
2022-08-19T19:52:47.175Z,19.27
2022-08-19T19:55:18.312Z,19.18
2022-08-19T19:57:47.572Z,19.08
2022-08-19T20:00:19.104Z,19.29
2022-08-19T20:02:50.377Z,19.33
2022-08-19T20:05:21.192Z,19.43
2022-08-19T20:08:07.594Z,19.36
2022-08-19T20:10:39.775Z,19.17
2022-08-19T20:13:08.561Z,19.16
2022-08-19T20:15:52.276Z,18.94
2022-08-19T20:18:21.206Z,19.02
2022-08-19T20:20:50.291Z,19.15
2022-08-19T20:23:21.745Z,19.23
2022-08-19T20:25:50.393Z,19.17
2022-08-19T20:28:21.295Z,19.12
2022-08-19T20:30:51.551Z,19.20
2022-08-19T20:33:19.453Z,19.20
2022-08-19T20:35:47.485Z,19.23
2022-08-19T20:38:15.738Z,19.22
2022-08-19T20:40:43.783Z,19.17
2022-08-19T20:43:13.380Z,19.29
2022-08-19T20:45:42.517Z,19.15
2022-08-19T20:48:12.477Z,19.24
2022-08-19T20:50:40.831Z,19.23
2022-08-19T20:53:14.201Z,19.15
2022-08-19T20:55:45.450Z,19.27
2022-08-19T20:58:14.849Z,19.21
2022-08-19T21:00:45.979Z,19.35
2022-08-19T21:03:19.140Z,19.35
2022-08-19T21:05:47.544Z,19.29
2022-08-19T21:08:17.417Z,19.44
2022-08-19T21:10:45.746Z,19.27
2022-08-19T21:13:14.997Z,19.30
2022-08-19T21:15:44.527Z,19.36
2022-08-19T21:18:14.093Z,19.29
2022-08-19T21:20:44.742Z,19.31
2022-08-19T21:23:15.218Z,19.33
2022-08-19T21:25:54.267Z,19.23
2022-08-19T21:28:34.479Z,19.30
2022-08-19T21:31:06.496Z,19.31
2022-08-19T21:33:36.854Z,19.44
2022-08-19T21:36:07.500Z,19.46
2022-08-19T21:38:35.537Z,19.48
2022-08-19T21:41:06.253Z,19.46
2022-08-19T21:43:34.969Z,19.22
2022-08-19T21:46:03.283Z,19.22
2022-08-19T21:48:31.186Z,19.13
2022-08-19T21:51:00.119Z,19.07
2022-08-19T21:53:31.463Z,19.02
2022-08-19T21:56:12.949Z,19.07
2022-08-19T21:58:42.194Z,19.09
2022-08-19T22:01:10.285Z,19.10
2022-08-19T22:03:39.985Z,19.06
2022-08-19T22:06:08.405Z,19.05
2022-08-19T22:08:38.791Z,19.00
2022-08-19T22:11:06.837Z,19.11
2022-08-19T22:13:40.013Z,19.06
2022-08-19T22:16:09.543Z,19.07
2022-08-19T22:18:37.543Z,19.07
2022-08-19T22:21:11.331Z,19.06
2022-08-19T22:23:41.788Z,19.05
2022-08-19T22:26:10.283Z,18.89
2022-08-19T22:28:38.752Z,19.00
2022-08-19T22:31:07.925Z,18.87
2022-08-19T22:33:37.431Z,18.84
2022-08-19T22:36:07.485Z,18.80
2022-08-19T22:38:37.400Z,18.74
2022-08-19T22:41:08.093Z,18.76
2022-08-19T22:43:37.425Z,18.63
2022-08-19T22:46:06.474Z,18.44
2022-08-19T22:48:45.709Z,18.50
2022-08-19T22:51:31.225Z,18.40
2022-08-19T22:53:59.094Z,18.36
2022-08-19T22:56:28.522Z,18.40
2022-08-19T22:58:56.437Z,18.31
2022-08-19T23:01:29.713Z,18.38
2022-08-19T23:03:59.022Z,18.22
2022-08-19T23:06:33.988Z,18.25
2022-08-19T23:09:05.187Z,18.22
2022-08-19T23:11:38.105Z,18.34
2022-08-19T23:14:20.354Z,18.20
2022-08-19T23:16:51.275Z,18.18
2022-08-19T23:19:20.349Z,18.28
2022-08-19T23:21:48.442Z,18.17
2022-08-19T23:24:16.693Z,18.08
2022-08-19T23:26:59.885Z,17.99
2022-08-19T23:29:45.659Z,18.03
2022-08-19T23:32:16.182Z,17.98
2022-08-19T23:34:44.196Z,17.91
2022-08-19T23:37:12.180Z,17.95
2022-08-19T23:39:40.813Z,18.05
2022-08-19T23:42:13.584Z,17.89
2022-08-19T23:44:51.814Z,18.05
2022-08-19T23:47:21.321Z,17.91
2022-08-19T23:49:51.177Z,17.84
2022-08-19T23:52:19.538Z,17.93
2022-08-19T23:54:47.421Z,17.74
2022-08-19T23:57:16.658Z,17.76
2022-08-19T23:59:46.199Z,17.82
